sensor_id;sensor_type;location;lat;lon;timestamp;temperature;humidity
22416;DHT22;12204;50.600;4.608;2022-10-17T00:03:50;23.10;82.70
22416;DHT22;12204;50.600;4.608;2022-10-17T00:08:54;23.10;82.50
22416;DHT22;12204;50.600;4.608;2022-10-17T00:13:57;23.10;82.60
22416;DHT22;12204;50.600;4.608;2022-10-17T00:19:03;23.10;82.70
22416;DHT22;12204;50.600;4.608;2022-10-17T00:24:08;23.10;82.80
22416;DHT22;12204;50.600;4.608;2022-10-17T00:29:12;23.10;82.80
22416;DHT22;12204;50.600;4.608;2022-10-17T00:34:16;23.10;83.30
22416;DHT22;12204;50.600;4.608;2022-10-17T00:39:20;23.10;83.50
22416;DHT22;12204;50.600;4.608;2022-10-17T00:50:12;23.10;83.40
22416;DHT22;12204;50.600;4.608;2022-10-17T00:55:19;23.10;83.60
22416;DHT22;12204;50.600;4.608;2022-10-17T01:00:26;23.10;83.40
22416;DHT22;12204;50.600;4.608;2022-10-17T01:05:31;23.10;83.60
22416;DHT22;12204;50.600;4.608;2022-10-17T01:10:42;23.10;83.60
22416;DHT22;12204;50.600;4.608;2022-10-17T01:16:02;23.10;83.50
22416;DHT22;12204;50.600;4.608;2022-10-17T01:21:29;23.10;83.40
22416;DHT22;12204;50.600;4.608;2022-10-17T01:26:51;23.10;83.80
22416;DHT22;12204;50.600;4.608;2022-10-17T01:32:12;23.10;83.50
22416;DHT22;12204;50.600;4.608;2022-10-17T01:37:20;23.10;83.60
22416;DHT22;12204;50.600;4.608;2022-10-17T01:42:34;23.10;83.70
22416;DHT22;12204;50.600;4.608;2022-10-17T01:47:45;23.00;83.70
22416;DHT22;12204;50.600;4.608;2022-10-17T01:52:53;23.10;83.50
22416;DHT22;12204;50.600;4.608;2022-10-17T01:58:05;23.10;83.50
22416;DHT22;12204;50.600;4.608;2022-10-17T02:03:16;23.00;83.60
22416;DHT22;12204;50.600;4.608;2022-10-17T02:08:25;23.00;83.20
22416;DHT22;12204;50.600;4.608;2022-10-17T02:13:38;23.00;83.40
22416;DHT22;12204;50.600;4.608;2022-10-17T02:19:12;23.00;84.10
22416;DHT22;12204;50.600;4.608;2022-10-17T02:24:41;23.00;83.50
22416;DHT22;12204;50.600;4.608;2022-10-17T02:29:56;23.00;83.80
22416;DHT22;12204;50.600;4.608;2022-10-17T02:35:07;23.00;83.60
22416;DHT22;12204;50.600;4.608;2022-10-17T02:40:13;23.00;83.70
22416;DHT22;12204;50.600;4.608;2022-10-17T02:45:18;23.00;83.60
22416;DHT22;12204;50.600;4.608;2022-10-17T02:50:27;23.00;84.10
22416;DHT22;12204;50.600;4.608;2022-10-17T02:55:43;23.00;84.20
22416;DHT22;12204;50.600;4.608;2022-10-17T03:00:52;23.00;84.30
22416;DHT22;12204;50.600;4.608;2022-10-17T03:05:57;23.00;84.00
22416;DHT22;12204;50.600;4.608;2022-10-17T03:11:01;23.00;84.10
22416;DHT22;12204;50.600;4.608;2022-10-17T03:16:05;23.00;83.90
22416;DHT22;12204;50.600;4.608;2022-10-17T03:21:11;23.00;84.10
22416;DHT22;12204;50.600;4.608;2022-10-17T03:26:15;23.00;84.00
22416;DHT22;12204;50.600;4.608;2022-10-17T03:31:18;23.00;84.80
22416;DHT22;12204;50.600;4.608;2022-10-17T03:36:24;23.00;84.50
22416;DHT22;12204;50.600;4.608;2022-10-17T03:41:28;23.00;84.30
22416;DHT22;12204;50.600;4.608;2022-10-17T03:46:32;23.00;84.10
22416;DHT22;12204;50.600;4.608;2022-10-17T03:51:37;23.00;84.30
22416;DHT22;12204;50.600;4.608;2022-10-17T03:56:45;23.00;84.20
22416;DHT22;12204;50.600;4.608;2022-10-17T04:01:52;23.00;84.20
22416;DHT22;12204;50.600;4.608;2022-10-17T04:06:58;23.00;84.10
22416;DHT22;12204;50.600;4.608;2022-10-17T04:12:02;23.00;84.10
22416;DHT22;12204;50.600;4.608;2022-10-17T04:17:07;22.90;83.90
22416;DHT22;12204;50.600;4.608;2022-10-17T04:22:14;22.90;84.40
22416;DHT22;12204;50.600;4.608;2022-10-17T04:27:17;22.90;83.80
22416;DHT22;12204;50.600;4.608;2022-10-17T04:32:22;22.90;83.50
22416;DHT22;12204;50.600;4.608;2022-10-17T04:37:42;22.90;83.90
22416;DHT22;12204;50.600;4.608;2022-10-17T04:42:51;22.90;84.20
22416;DHT22;12204;50.600;4.608;2022-10-17T04:48:00;22.90;84.70
22416;DHT22;12204;50.600;4.608;2022-10-17T04:53:05;22.90;84.70
22416;DHT22;12204;50.600;4.608;2022-10-17T04:58:09;22.90;84.80
22416;DHT22;12204;50.600;4.608;2022-10-17T05:03:14;22.90;84.70
22416;DHT22;12204;50.600;4.608;2022-10-17T05:08:19;22.90;84.60
22416;DHT22;12204;50.600;4.608;2022-10-17T05:13:24;22.90;84.70
22416;DHT22;12204;50.600;4.608;2022-10-17T05:18:28;22.90;84.50
22416;DHT22;12204;50.600;4.608;2022-10-17T05:23:33;22.90;84.30
22416;DHT22;12204;50.600;4.608;2022-10-17T05:28:37;22.90;84.70
22416;DHT22;12204;50.600;4.608;2022-10-17T05:33:42;22.90;84.20
22416;DHT22;12204;50.600;4.608;2022-10-17T05:38:50;22.90;83.20
22416;DHT22;12204;50.600;4.608;2022-10-17T05:43:54;23.00;83.10
22416;DHT22;12204;50.600;4.608;2022-10-17T05:49:11;23.00;82.90
22416;DHT22;12204;50.600;4.608;2022-10-17T05:54:37;23.00;82.70
22416;DHT22;12204;50.600;4.608;2022-10-17T05:59:40;23.10;82.70
22416;DHT22;12204;50.600;4.608;2022-10-17T06:04:51;23.10;82.60
22416;DHT22;12204;50.600;4.608;2022-10-17T06:09:59;23.10;82.40
22416;DHT22;12204;50.600;4.608;2022-10-17T06:15:03;23.10;82.60
22416;DHT22;12204;50.600;4.608;2022-10-17T06:20:09;23.10;82.40
22416;DHT22;12204;50.600;4.608;2022-10-17T06:25:14;23.10;82.60
22416;DHT22;12204;50.600;4.608;2022-10-17T06:30:18;23.10;82.80
22416;DHT22;12204;50.600;4.608;2022-10-17T06:35:24;23.10;82.60
22416;DHT22;12204;50.600;4.608;2022-10-17T06:40:29;23.10;82.70
22416;DHT22;12204;50.600;4.608;2022-10-17T06:45:34;23.10;82.70
22416;DHT22;12204;50.600;4.608;2022-10-17T06:50:47;23.10;82.60
22416;DHT22;12204;50.600;4.608;2022-10-17T06:55:56;23.10;82.50
22416;DHT22;12204;50.600;4.608;2022-10-17T07:01:33;23.10;83.60
22416;DHT22;12204;50.600;4.608;2022-10-17T07:06:38;23.10;83.60
22416;DHT22;12204;50.600;4.608;2022-10-17T07:11:50;23.10;83.30
22416;DHT22;12204;50.600;4.608;2022-10-17T07:16:54;23.00;83.40
22416;DHT22;12204;50.600;4.608;2022-10-17T07:21:59;22.90;83.10
22416;DHT22;12204;50.600;4.608;2022-10-17T07:27:06;22.90;82.90
22416;DHT22;12204;50.600;4.608;2022-10-17T07:32:10;22.80;82.50
22416;DHT22;12204;50.600;4.608;2022-10-17T07:37:14;22.80;82.20
22416;DHT22;12204;50.600;4.608;2022-10-17T07:42:26;22.80;82.00
22416;DHT22;12204;50.600;4.608;2022-10-17T07:47:30;22.80;81.80
22416;DHT22;12204;50.600;4.608;2022-10-17T07:52:38;22.70;81.40
22416;DHT22;12204;50.600;4.608;2022-10-17T07:57:45;22.70;81.10
22416;DHT22;12204;50.600;4.608;2022-10-17T08:02:49;22.70;81.00
22416;DHT22;12204;50.600;4.608;2022-10-17T08:07:55;22.70;80.90
22416;DHT22;12204;50.600;4.608;2022-10-17T08:13:00;22.70;81.20
22416;DHT22;12204;50.600;4.608;2022-10-17T08:18:04;22.70;80.90
22416;DHT22;12204;50.600;4.608;2022-10-17T08:23:08;22.60;80.50
22416;DHT22;12204;50.600;4.608;2022-10-17T08:28:13;22.60;80.50
22416;DHT22;12204;50.600;4.608;2022-10-17T08:33:16;22.60;80.50
22416;DHT22;12204;50.600;4.608;2022-10-17T08:38:20;22.60;80.30
22416;DHT22;12204;50.600;4.608;2022-10-17T08:43:40;22.50;80.30
22416;DHT22;12204;50.600;4.608;2022-10-17T08:48:58;22.50;80.20
22416;DHT22;12204;50.600;4.608;2022-10-17T08:54:10;22.50;80.20
22416;DHT22;12204;50.600;4.608;2022-10-17T08:59:24;22.50;80.10
22416;DHT22;12204;50.600;4.608;2022-10-17T09:04:51;22.50;80.20
22416;DHT22;12204;50.600;4.608;2022-10-17T09:10:09;22.50;80.20
22416;DHT22;12204;50.600;4.608;2022-10-17T09:15:33;22.50;80.00
22416;DHT22;12204;50.600;4.608;2022-10-17T09:20:49;22.50;80.10
22416;DHT22;12204;50.600;4.608;2022-10-17T09:25:58;22.50;80.30
22416;DHT22;12204;50.600;4.608;2022-10-17T09:31:05;22.50;80.40
22416;DHT22;12204;50.600;4.608;2022-10-17T09:36:18;22.50;80.40
22416;DHT22;12204;50.600;4.608;2022-10-17T09:41:33;22.50;80.40
22416;DHT22;12204;50.600;4.608;2022-10-17T09:47:16;22.50;80.50
22416;DHT22;12204;50.600;4.608;2022-10-17T09:52:29;22.50;80.60
22416;DHT22;12204;50.600;4.608;2022-10-17T09:57:52;22.40;80.70
22416;DHT22;12204;50.600;4.608;2022-10-17T10:03:14;22.40;80.50
22416;DHT22;12204;50.600;4.608;2022-10-17T10:08:23;22.50;80.60
22416;DHT22;12204;50.600;4.608;2022-10-17T10:13:32;22.50;80.80
22416;DHT22;12204;50.600;4.608;2022-10-17T10:18:38;22.50;80.70
22416;DHT22;12204;50.600;4.608;2022-10-17T10:23:42;22.40;80.80
22416;DHT22;12204;50.600;4.608;2022-10-17T10:28:52;22.50;81.00
22416;DHT22;12204;50.600;4.608;2022-10-17T10:34:13;22.40;80.90
22416;DHT22;12204;50.600;4.608;2022-10-17T10:39:44;22.40;80.90
22416;DHT22;12204;50.600;4.608;2022-10-17T10:44:53;22.40;80.80
22416;DHT22;12204;50.600;4.608;2022-10-17T10:50:30;22.40;80.90
22416;DHT22;12204;50.600;4.608;2022-10-17T10:55:41;22.40;80.80
22416;DHT22;12204;50.600;4.608;2022-10-17T11:00:49;22.40;81.00
22416;DHT22;12204;50.600;4.608;2022-10-17T11:05:59;22.40;81.00
22416;DHT22;12204;50.600;4.608;2022-10-17T11:11:12;22.40;80.90
22416;DHT22;12204;50.600;4.608;2022-10-17T11:20:17;22.40;80.80
22416;DHT22;12204;50.600;4.608;2022-10-17T11:25:34;22.80;79.50
22416;DHT22;12204;50.600;4.608;2022-10-17T11:30:44;22.60;80.80
22416;DHT22;12204;50.600;4.608;2022-10-17T11:35:56;22.50;81.00
22416;DHT22;12204;50.600;4.608;2022-10-17T11:41:07;22.50;81.10
22416;DHT22;12204;50.600;4.608;2022-10-17T11:46:17;22.50;81.20
22416;DHT22;12204;50.600;4.608;2022-10-17T11:51:25;22.50;81.20
22416;DHT22;12204;50.600;4.608;2022-10-17T11:57:05;22.40;81.20
22416;DHT22;12204;50.600;4.608;2022-10-17T12:02:26;22.40;81.30
22416;DHT22;12204;50.600;4.608;2022-10-17T12:07:44;22.50;81.70
22416;DHT22;12204;50.600;4.608;2022-10-17T12:12:51;22.40;81.60
22416;DHT22;12204;50.600;4.608;2022-10-17T12:17:56;22.40;81.50
22416;DHT22;12204;50.600;4.608;2022-10-17T12:23:25;22.40;81.50
22416;DHT22;12204;50.600;4.608;2022-10-17T12:28:31;22.40;81.40
22416;DHT22;12204;50.600;4.608;2022-10-17T12:33:37;22.40;81.90
22416;DHT22;12204;50.600;4.608;2022-10-17T12:44:51;22.60;83.30
22416;DHT22;12204;50.600;4.608;2022-10-17T12:49:55;22.50;83.60
22416;DHT22;12204;50.600;4.608;2022-10-17T12:55:06;22.60;83.50
22416;DHT22;12204;50.600;4.608;2022-10-17T13:00:19;22.60;83.60
22416;DHT22;12204;50.600;4.608;2022-10-17T13:05:28;22.60;83.80
22416;DHT22;12204;50.600;4.608;2022-10-17T13:10:37;22.60;83.50
22416;DHT22;12204;50.600;4.608;2022-10-17T13:15:46;22.60;83.50
22416;DHT22;12204;50.600;4.608;2022-10-17T13:20:55;22.60;83.50
22416;DHT22;12204;50.600;4.608;2022-10-17T13:26:10;22.60;83.40
22416;DHT22;12204;50.600;4.608;2022-10-17T13:31:28;22.60;83.30
22416;DHT22;12204;50.600;4.608;2022-10-17T13:36:34;22.60;83.30
22416;DHT22;12204;50.600;4.608;2022-10-17T13:41:39;22.60;83.10
22416;DHT22;12204;50.600;4.608;2022-10-17T13:46:44;22.60;83.10
22416;DHT22;12204;50.600;4.608;2022-10-17T13:51:49;22.60;83.00
22416;DHT22;12204;50.600;4.608;2022-10-17T13:56:56;22.60;83.00
22416;DHT22;12204;50.600;4.608;2022-10-17T14:02:00;22.60;82.90
22416;DHT22;12204;50.600;4.608;2022-10-17T14:07:05;22.60;82.90
22416;DHT22;12204;50.600;4.608;2022-10-17T14:12:11;22.60;82.80
22416;DHT22;12204;50.600;4.608;2022-10-17T14:17:22;22.60;82.80
22416;DHT22;12204;50.600;4.608;2022-10-17T14:22:32;22.60;82.60
22416;DHT22;12204;50.600;4.608;2022-10-17T14:27:53;22.60;82.60
22416;DHT22;12204;50.600;4.608;2022-10-17T14:33:10;22.60;82.50
22416;DHT22;12204;50.600;4.608;2022-10-17T14:38:16;22.60;82.50
22416;DHT22;12204;50.600;4.608;2022-10-17T14:43:25;22.60;82.40
22416;DHT22;12204;50.600;4.608;2022-10-17T14:48:32;22.60;82.50
22416;DHT22;12204;50.600;4.608;2022-10-17T14:53:37;22.60;82.30
22416;DHT22;12204;50.600;4.608;2022-10-17T14:58:42;22.60;82.30
22416;DHT22;12204;50.600;4.608;2022-10-17T15:03:46;22.60;82.30
22416;DHT22;12204;50.600;4.608;2022-10-17T15:08:50;22.60;82.20
22416;DHT22;12204;50.600;4.608;2022-10-17T15:13:55;22.60;82.60
22416;DHT22;12204;50.600;4.608;2022-10-17T15:18:59;22.60;82.20
22416;DHT22;12204;50.600;4.608;2022-10-17T15:24:03;22.60;82.10
22416;DHT22;12204;50.600;4.608;2022-10-17T15:29:10;22.60;82.10
22416;DHT22;12204;50.600;4.608;2022-10-17T15:34:17;22.60;82.10
22416;DHT22;12204;50.600;4.608;2022-10-17T15:39:21;22.60;82.00
22416;DHT22;12204;50.600;4.608;2022-10-17T15:44:26;22.50;81.90
22416;DHT22;12204;50.600;4.608;2022-10-17T15:49:30;22.50;81.90
22416;DHT22;12204;50.600;4.608;2022-10-17T15:54:35;22.50;81.90
22416;DHT22;12204;50.600;4.608;2022-10-17T15:59:40;22.60;81.90
22416;DHT22;12204;50.600;4.608;2022-10-17T16:04:45;22.50;81.80
22416;DHT22;12204;50.600;4.608;2022-10-17T16:09:50;22.60;81.80
22416;DHT22;12204;50.600;4.608;2022-10-17T16:14:55;22.50;81.70
22416;DHT22;12204;50.600;4.608;2022-10-17T16:19:59;22.50;81.70
22416;DHT22;12204;50.600;4.608;2022-10-17T16:25:03;22.50;81.70
22416;DHT22;12204;50.600;4.608;2022-10-17T16:30:12;22.50;81.70
22416;DHT22;12204;50.600;4.608;2022-10-17T16:35:19;22.50;81.60
22416;DHT22;12204;50.600;4.608;2022-10-17T16:40:26;22.50;81.60
22416;DHT22;12204;50.600;4.608;2022-10-17T16:45:31;22.50;81.60
22416;DHT22;12204;50.600;4.608;2022-10-17T16:50:38;22.50;81.60
22416;DHT22;12204;50.600;4.608;2022-10-17T16:55:42;22.50;81.50
22416;DHT22;12204;50.600;4.608;2022-10-17T17:00:47;22.50;81.50
22416;DHT22;12204;50.600;4.608;2022-10-17T17:05:51;22.50;81.50
22416;DHT22;12204;50.600;4.608;2022-10-17T17:10:55;22.50;81.40
22416;DHT22;12204;50.600;4.608;2022-10-17T17:16:05;22.50;81.50
22416;DHT22;12204;50.600;4.608;2022-10-17T17:21:11;22.50;81.50
22416;DHT22;12204;50.600;4.608;2022-10-17T17:26:16;22.50;81.40
22416;DHT22;12204;50.600;4.608;2022-10-17T17:31:25;22.50;81.40
22416;DHT22;12204;50.600;4.608;2022-10-17T17:36:32;22.50;81.40
22416;DHT22;12204;50.600;4.608;2022-10-17T17:41:40;22.50;81.30
22416;DHT22;12204;50.600;4.608;2022-10-17T17:46:45;22.50;81.50
22416;DHT22;12204;50.600;4.608;2022-10-17T17:51:50;22.50;82.10
22416;DHT22;12204;50.600;4.608;2022-10-17T17:56:54;22.50;82.10
22416;DHT22;12204;50.600;4.608;2022-10-17T18:01:59;22.50;82.30
22416;DHT22;12204;50.600;4.608;2022-10-17T18:07:03;22.60;82.80
22416;DHT22;12204;50.600;4.608;2022-10-17T18:12:07;22.50;82.40
22416;DHT22;12204;50.600;4.608;2022-10-17T18:17:12;22.50;82.10
22416;DHT22;12204;50.600;4.608;2022-10-17T18:22:16;22.60;82.40
22416;DHT22;12204;50.600;4.608;2022-10-17T18:27:19;22.60;82.10
22416;DHT22;12204;50.600;4.608;2022-10-17T18:32:24;22.60;81.80
22416;DHT22;12204;50.600;4.608;2022-10-17T18:37:29;22.60;81.70
22416;DHT22;12204;50.600;4.608;2022-10-17T18:42:33;22.60;81.60
22416;DHT22;12204;50.600;4.608;2022-10-17T18:47:37;22.60;81.50
22416;DHT22;12204;50.600;4.608;2022-10-17T18:52:45;22.60;81.40
22416;DHT22;12204;50.600;4.608;2022-10-17T18:57:49;22.60;81.40
22416;DHT22;12204;50.600;4.608;2022-10-17T19:02:55;22.60;81.50
22416;DHT22;12204;50.600;4.608;2022-10-17T19:07:59;22.60;81.40
22416;DHT22;12204;50.600;4.608;2022-10-17T19:13:03;22.60;81.40
22416;DHT22;12204;50.600;4.608;2022-10-17T19:18:08;22.60;81.40
22416;DHT22;12204;50.600;4.608;2022-10-17T19:23:12;22.60;81.50
22416;DHT22;12204;50.600;4.608;2022-10-17T19:28:15;22.60;82.20
22416;DHT22;12204;50.600;4.608;2022-10-17T19:33:20;22.50;82.20
22416;DHT22;12204;50.600;4.608;2022-10-17T19:38:24;22.50;81.80
22416;DHT22;12204;50.600;4.608;2022-10-17T19:43:28;22.50;81.60
22416;DHT22;12204;50.600;4.608;2022-10-17T19:48:35;22.50;81.70
22416;DHT22;12204;50.600;4.608;2022-10-17T19:53:39;22.50;81.60
22416;DHT22;12204;50.600;4.608;2022-10-17T19:58:43;22.50;81.60
22416;DHT22;12204;50.600;4.608;2022-10-17T20:03:50;22.50;82.80
22416;DHT22;12204;50.600;4.608;2022-10-17T20:08:53;22.50;83.00
22416;DHT22;12204;50.600;4.608;2022-10-17T20:13:58;22.50;83.40
22416;DHT22;12204;50.600;4.608;2022-10-17T20:19:07;22.50;83.30
22416;DHT22;12204;50.600;4.608;2022-10-17T20:24:14;22.40;83.20
22416;DHT22;12204;50.600;4.608;2022-10-17T20:29:20;22.40;83.10
22416;DHT22;12204;50.600;4.608;2022-10-17T20:34:26;22.40;83.10
22416;DHT22;12204;50.600;4.608;2022-10-17T20:39:35;22.40;83.00
22416;DHT22;12204;50.600;4.608;2022-10-17T20:44:39;22.40;82.80
22416;DHT22;12204;50.600;4.608;2022-10-17T20:49:44;22.40;82.80
22416;DHT22;12204;50.600;4.608;2022-10-17T20:54:48;22.40;82.70
22416;DHT22;12204;50.600;4.608;2022-10-17T20:59:52;22.40;82.70
22416;DHT22;12204;50.600;4.608;2022-10-17T21:04:57;22.30;82.60
22416;DHT22;12204;50.600;4.608;2022-10-17T21:10:01;22.40;82.70
22416;DHT22;12204;50.600;4.608;2022-10-17T21:15:25;22.30;82.60
22416;DHT22;12204;50.600;4.608;2022-10-17T21:20:30;22.30;82.60
22416;DHT22;12204;50.600;4.608;2022-10-17T21:25:33;22.40;82.60
22416;DHT22;12204;50.600;4.608;2022-10-17T21:30:40;22.40;82.60
22416;DHT22;12204;50.600;4.608;2022-10-17T21:35:45;22.30;82.60
22416;DHT22;12204;50.600;4.608;2022-10-17T21:40:49;22.30;82.50
22416;DHT22;12204;50.600;4.608;2022-10-17T21:46:00;22.30;82.50
22416;DHT22;12204;50.600;4.608;2022-10-17T21:51:08;22.30;82.60
22416;DHT22;12204;50.600;4.608;2022-10-17T21:56:15;22.30;82.50
22416;DHT22;12204;50.600;4.608;2022-10-17T22:01:23;22.30;82.50
22416;DHT22;12204;50.600;4.608;2022-10-17T22:06:32;22.30;82.50
22416;DHT22;12204;50.600;4.608;2022-10-17T22:11:44;22.30;84.70
22416;DHT22;12204;50.600;4.608;2022-10-17T22:16:49;22.40;85.60
22416;DHT22;12204;50.600;4.608;2022-10-17T22:21:54;22.40;86.00
22416;DHT22;12204;50.600;4.608;2022-10-17T22:26:58;22.50;87.40
22416;DHT22;12204;50.600;4.608;2022-10-17T22:32:01;22.50;88.00
22416;DHT22;12204;50.600;4.608;2022-10-17T22:37:06;22.60;87.50
22416;DHT22;12204;50.600;4.608;2022-10-17T22:42:10;22.60;87.60
22416;DHT22;12204;50.600;4.608;2022-10-17T22:47:13;22.60;86.80
22416;DHT22;12204;50.600;4.608;2022-10-17T22:52:18;22.60;87.00
22416;DHT22;12204;50.600;4.608;2022-10-17T22:57:22;22.60;86.50
22416;DHT22;12204;50.600;4.608;2022-10-17T23:02:25;22.60;86.90
22416;DHT22;12204;50.600;4.608;2022-10-17T23:07:31;22.60;86.90
22416;DHT22;12204;50.600;4.608;2022-10-17T23:12:35;22.60;86.70
22416;DHT22;12204;50.600;4.608;2022-10-17T23:17:39;22.60;86.50
22416;DHT22;12204;50.600;4.608;2022-10-17T23:22:43;22.60;86.40
22416;DHT22;12204;50.600;4.608;2022-10-17T23:27:47;22.60;86.20
22416;DHT22;12204;50.600;4.608;2022-10-17T23:32:52;22.60;86.20
22416;DHT22;12204;50.600;4.608;2022-10-17T23:37:57;22.60;86.20
22416;DHT22;12204;50.600;4.608;2022-10-17T23:43:00;22.60;86.00
22416;DHT22;12204;50.600;4.608;2022-10-17T23:48:04;22.60;85.90
22416;DHT22;12204;50.600;4.608;2022-10-17T23:53:09;22.60;85.90
22416;DHT22;12204;50.600;4.608;2022-10-17T23:58:13;22.60;85.80
